sensor_id;sensor_type;location;lat;lon;timestamp;pressure;altitude;pressure_sealevel;temperature;humidity
52032;BME280;38044;45.148;39.604;2023-01-30T00:01:22;100816.25;;;3.79;66.79
52032;BME280;38044;45.148;39.604;2023-01-30T00:03:48;100815.13;;;3.75;66.47
52032;BME280;38044;45.148;39.604;2023-01-30T00:06:14;100830.84;;;3.77;66.50
52032;BME280;38044;45.148;39.604;2023-01-30T00:08:40;100768.16;;;3.35;66.28
52032;BME280;38044;45.148;39.604;2023-01-30T00:11:09;100837.53;;;3.79;66.72
52032;BME280;38044;45.148;39.604;2023-01-30T00:13:36;100813.25;;;3.59;66.85
52032;BME280;38044;45.148;39.604;2023-01-30T00:16:02;100801.38;;;3.50;67.04
52032;BME280;38044;45.148;39.604;2023-01-30T00:18:27;100688.47;;;2.78;67.30
52032;BME280;38044;45.148;39.604;2023-01-30T00:21:01;100793.50;;;3.55;67.26
52032;BME280;38044;45.148;39.604;2023-01-30T00:23:29;100835.28;;;3.88;66.90
52032;BME280;38044;45.148;39.604;2023-01-30T00:25:55;100784.31;;;3.63;66.70
52032;BME280;38044;45.148;39.604;2023-01-30T00:28:21;100824.97;;;3.92;66.50
52032;BME280;38044;45.148;39.604;2023-01-30T00:30:48;100809.34;;;3.78;66.83
52032;BME280;38044;45.148;39.604;2023-01-30T00:33:15;100828.44;;;3.75;66.77
52032;BME280;38044;45.148;39.604;2023-01-30T00:35:45;100765.13;;;3.44;67.25
52032;BME280;38044;45.148;39.604;2023-01-30T00:38:11;100848.91;;;3.92;66.83
52032;BME280;38044;45.148;39.604;2023-01-30T00:40:37;100851.75;;;4.02;66.87
52032;BME280;38044;45.148;39.604;2023-01-30T00:43:03;100866.59;;;3.98;67.15
52032;BME280;38044;45.148;39.604;2023-01-30T00:45:47;100800.03;;;3.64;66.97
52032;BME280;38044;45.148;39.604;2023-01-30T00:48:32;100858.69;;;4.03;67.44
52032;BME280;38044;45.148;39.604;2023-01-30T00:50:58;100795.91;;;3.56;67.81
52032;BME280;38044;45.148;39.604;2023-01-30T00:53:24;100830.03;;;3.76;68.25
52032;BME280;38044;45.148;39.604;2023-01-30T00:55:51;100842.28;;;3.77;69.18
52032;BME280;38044;45.148;39.604;2023-01-30T00:58:17;100865.44;;;3.94;70.27
52032;BME280;38044;45.148;39.604;2023-01-30T01:00:43;100843.53;;;3.87;70.80
52032;BME280;38044;45.148;39.604;2023-01-30T01:03:09;100863.59;;;3.94;71.22
52032;BME280;38044;45.148;39.604;2023-01-30T01:05:35;100861.72;;;3.95;71.96
52032;BME280;38044;45.148;39.604;2023-01-30T01:08:01;100787.50;;;3.48;73.32
52032;BME280;38044;45.148;39.604;2023-01-30T01:10:27;100874.16;;;4.06;74.84
52032;BME280;38044;45.148;39.604;2023-01-30T01:12:53;100751.25;;;3.42;75.76
52032;BME280;38044;45.148;39.604;2023-01-30T01:15:20;100788.34;;;3.65;76.83
52032;BME280;38044;45.148;39.604;2023-01-30T01:17:47;100854.03;;;4.10;77.53
52032;BME280;38044;45.148;39.604;2023-01-30T01:20:13;100883.25;;;4.39;78.25
52032;BME280;38044;45.148;39.604;2023-01-30T01:22:40;100858.09;;;4.29;79.44
52032;BME280;38044;45.148;39.604;2023-01-30T01:25:06;100766.44;;;3.75;79.44
52032;BME280;38044;45.148;39.604;2023-01-30T01:27:32;100845.09;;;4.33;80.64
52032;BME280;38044;45.148;39.604;2023-01-30T01:29:58;100811.47;;;4.10;80.74
52032;BME280;38044;45.148;39.604;2023-01-30T01:32:25;100888.22;;;4.69;81.28
52032;BME280;38044;45.148;39.604;2023-01-30T01:34:51;100871.94;;;4.65;80.78
52032;BME280;38044;45.148;39.604;2023-01-30T01:37:16;100872.59;;;4.72;81.05
52032;BME280;38044;45.148;39.604;2023-01-30T01:39:42;100860.22;;;4.66;81.99
52032;BME280;38044;45.148;39.604;2023-01-30T01:42:29;100896.38;;;4.96;82.73
52032;BME280;38044;45.148;39.604;2023-01-30T01:50:26;100855.72;;;4.84;83.31
52032;BME280;38044;45.148;39.604;2023-01-30T01:52:54;100807.91;;;4.55;83.23
52032;BME280;38044;45.148;39.604;2023-01-30T01:55:23;100866.56;;;4.99;83.34
52032;BME280;38044;45.148;39.604;2023-01-30T01:58:08;100823.97;;;4.82;83.72
52032;BME280;38044;45.148;39.604;2023-01-30T02:00:36;100869.91;;;5.11;83.45
52032;BME280;38044;45.148;39.604;2023-01-30T02:03:04;100783.00;;;4.66;83.12
52032;BME280;38044;45.148;39.604;2023-01-30T02:05:36;100810.47;;;4.89;83.10
52032;BME280;38044;45.148;39.604;2023-01-30T02:11:04;100912.69;;;5.65;83.58
52032;BME280;38044;45.148;39.604;2023-01-30T02:13:31;100877.28;;;5.26;83.48
52032;BME280;38044;45.148;39.604;2023-01-30T02:15:59;100744.47;;;4.52;83.09
52032;BME280;38044;45.148;39.604;2023-01-30T02:18:26;100878.22;;;5.37;83.75
52032;BME280;38044;45.148;39.604;2023-01-30T02:23:39;100841.97;;;5.14;84.14
52032;BME280;38044;45.148;39.604;2023-01-30T02:29:24;100909.97;;;5.60;84.23
52032;BME280;38044;45.148;39.604;2023-01-30T02:32:13;100939.81;;;5.79;84.16
52032;BME280;38044;45.148;39.604;2023-01-30T02:46:12;100953.28;;;5.68;83.76
52032;BME280;38044;45.148;39.604;2023-01-30T02:48:52;100914.56;;;5.43;83.68
52032;BME280;38044;45.148;39.604;2023-01-30T02:51:26;100948.81;;;5.51;84.17
52032;BME280;38044;45.148;39.604;2023-01-30T02:53:55;100915.44;;;5.27;84.09
52032;BME280;38044;45.148;39.604;2023-01-30T02:56:50;100925.59;;;5.30;84.35
52032;BME280;38044;45.148;39.604;2023-01-30T03:05:15;100943.69;;;5.28;84.81
52032;BME280;38044;45.148;39.604;2023-01-30T03:10:36;100830.63;;;4.63;84.65
52032;BME280;38044;45.148;39.604;2023-01-30T03:13:13;100943.22;;;5.31;84.27
52032;BME280;38044;45.148;39.604;2023-01-30T03:15:48;100823.31;;;4.53;84.21
52032;BME280;38044;45.148;39.604;2023-01-30T03:18:17;100883.22;;;4.89;84.14
52032;BME280;38044;45.148;39.604;2023-01-30T03:20:44;100933.53;;;5.25;83.66
52032;BME280;38044;45.148;39.604;2023-01-30T03:23:10;100943.06;;;5.20;83.80
52032;BME280;38044;45.148;39.604;2023-01-30T03:25:37;100945.72;;;5.20;84.11
52032;BME280;38044;45.148;39.604;2023-01-30T03:28:05;100835.63;;;4.59;84.02
52032;BME280;38044;45.148;39.604;2023-01-30T03:30:32;100932.09;;;5.17;83.87
52032;BME280;38044;45.148;39.604;2023-01-30T03:32:58;100950.41;;;5.30;83.78
52032;BME280;38044;45.148;39.604;2023-01-30T03:35:24;100850.63;;;4.65;83.29
52032;BME280;38044;45.148;39.604;2023-01-30T03:37:50;100940.97;;;5.23;83.45
52032;BME280;38044;45.148;39.604;2023-01-30T03:40:16;100945.72;;;5.20;83.76
52032;BME280;38044;45.148;39.604;2023-01-30T03:42:42;100960.56;;;5.33;83.34
52032;BME280;38044;45.148;39.604;2023-01-30T03:45:08;100936.91;;;5.20;83.70
52032;BME280;38044;45.148;39.604;2023-01-30T03:47:35;100943.38;;;5.24;83.35
52032;BME280;38044;45.148;39.604;2023-01-30T03:50:01;100920.47;;;5.06;83.50
52032;BME280;38044;45.148;39.604;2023-01-30T03:52:27;100915.63;;;5.03;83.06
52032;BME280;38044;45.148;39.604;2023-01-30T03:54:52;100893.31;;;4.87;83.35
52032;BME280;38044;45.148;39.604;2023-01-30T03:57:18;100953.97;;;5.19;83.71
52032;BME280;38044;45.148;39.604;2023-01-30T03:59:44;100846.78;;;4.56;83.28
52032;BME280;38044;45.148;39.604;2023-01-30T04:02:10;100958.00;;;5.22;83.25
52032;BME280;38044;45.148;39.604;2023-01-30T04:04:36;100969.25;;;5.24;83.16
52032;BME280;38044;45.148;39.604;2023-01-30T04:07:01;100863.88;;;4.60;83.26
52032;BME280;38044;45.148;39.604;2023-01-30T04:09:27;100961.56;;;5.27;83.07
52032;BME280;38044;45.148;39.604;2023-01-30T04:11:53;100968.41;;;5.23;83.06
52032;BME280;38044;45.148;39.604;2023-01-30T04:14:19;100961.72;;;5.20;82.77
52032;BME280;38044;45.148;39.604;2023-01-30T04:16:45;100955.19;;;5.11;83.04
52032;BME280;38044;45.148;39.604;2023-01-30T04:19:10;100889.06;;;4.69;83.22
52032;BME280;38044;45.148;39.604;2023-01-30T04:21:36;100994.44;;;5.33;83.26
52032;BME280;38044;45.148;39.604;2023-01-30T04:24:02;100997.00;;;5.28;82.85
52032;BME280;38044;45.148;39.604;2023-01-30T04:26:28;100982.00;;;5.22;83.14
52032;BME280;38044;45.148;39.604;2023-01-30T04:28:54;100985.84;;;5.31;82.73
52032;BME280;38044;45.148;39.604;2023-01-30T04:31:20;100993.28;;;5.29;82.16
52032;BME280;38044;45.148;39.604;2023-01-30T04:33:47;100921.81;;;4.87;81.92
52032;BME280;38044;45.148;39.604;2023-01-30T04:36:13;100912.53;;;4.72;82.19
52032;BME280;38044;45.148;39.604;2023-01-30T04:38:39;100948.94;;;4.84;81.78
52032;BME280;38044;45.148;39.604;2023-01-30T04:41:05;100978.94;;;4.96;81.80
52032;BME280;38044;45.148;39.604;2023-01-30T04:43:31;100983.13;;;4.92;82.16
52032;BME280;38044;45.148;39.604;2023-01-30T04:45:57;100992.69;;;4.88;81.89
52032;BME280;38044;45.148;39.604;2023-01-30T04:48:24;100958.13;;;4.59;82.38
52032;BME280;38044;45.148;39.604;2023-01-30T04:50:52;101012.88;;;4.84;82.37
52032;BME280;38044;45.148;39.604;2023-01-30T04:53:19;100996.03;;;4.66;82.78
52032;BME280;38044;45.148;39.604;2023-01-30T04:55:45;101012.69;;;4.73;82.24
52032;BME280;38044;45.148;39.604;2023-01-30T04:58:11;101021.78;;;4.78;82.15
52032;BME280;38044;45.148;39.604;2023-01-30T05:00:37;101008.81;;;4.64;82.32
52032;BME280;38044;45.148;39.604;2023-01-30T05:06:16;100998.44;;;4.51;82.27
52032;BME280;38044;45.148;39.604;2023-01-30T05:08:42;100990.38;;;4.46;82.04
52032;BME280;38044;45.148;39.604;2023-01-30T05:11:07;101013.56;;;4.62;82.01
52032;BME280;38044;45.148;39.604;2023-01-30T05:13:33;100922.22;;;3.99;81.99
52032;BME280;38044;45.148;39.604;2023-01-30T05:15:59;100993.13;;;4.51;82.14
52032;BME280;38044;45.148;39.604;2023-01-30T05:18:25;100942.25;;;4.19;82.03
52032;BME280;38044;45.148;39.604;2023-01-30T05:20:51;101014.78;;;4.71;81.70
52032;BME280;38044;45.148;39.604;2023-01-30T05:23:16;100927.75;;;4.26;81.11
52032;BME280;38044;45.148;39.604;2023-01-30T05:25:42;100953.94;;;4.46;80.64
52032;BME280;38044;45.148;39.604;2023-01-30T05:28:08;100943.75;;;4.60;80.57
52032;BME280;38044;45.148;39.604;2023-01-30T05:30:34;101014.97;;;5.15;80.51
52032;BME280;38044;45.148;39.604;2023-01-30T05:33:00;100972.56;;;4.97;80.16
52032;BME280;38044;45.148;39.604;2023-01-30T05:35:25;100922.44;;;4.94;79.58
52032;BME280;38044;45.148;39.604;2023-01-30T05:37:51;101040.47;;;5.84;78.90
52032;BME280;38044;45.148;39.604;2023-01-30T05:40:17;100926.41;;;5.30;78.40
52032;BME280;38044;45.148;39.604;2023-01-30T05:42:43;101029.63;;;6.13;77.65
52032;BME280;38044;45.148;39.604;2023-01-30T05:45:09;100967.03;;;6.03;77.04
52032;BME280;38044;45.148;39.604;2023-01-30T05:47:35;101012.00;;;6.66;76.48
52032;BME280;38044;45.148;39.604;2023-01-30T05:50:00;101009.69;;;7.12;75.08
52032;BME280;38044;45.148;39.604;2023-01-30T05:52:26;100961.72;;;7.37;74.16
52032;BME280;38044;45.148;39.604;2023-01-30T05:54:52;101019.34;;;8.23;72.41
52032;BME280;38044;45.148;39.604;2023-01-30T05:57:18;100953.81;;;8.56;70.95
52032;BME280;38044;45.148;39.604;2023-01-30T05:59:44;101042.22;;;9.59;69.01
52032;BME280;38044;45.148;39.604;2023-01-30T06:02:09;100954.44;;;9.59;67.33
52032;BME280;38044;45.148;39.604;2023-01-30T06:04:35;101040.28;;;10.84;66.07
52032;BME280;38044;45.148;39.604;2023-01-30T06:07:01;101037.94;;;11.65;64.29
52032;BME280;38044;45.148;39.604;2023-01-30T06:09:27;101008.00;;;12.14;61.97
52032;BME280;38044;45.148;39.604;2023-01-30T06:11:52;101016.88;;;12.72;59.95
52032;BME280;38044;45.148;39.604;2023-01-30T06:14:20;100954.50;;;13.06;58.22
52032;BME280;38044;45.148;39.604;2023-01-30T06:16:46;100989.31;;;14.04;56.45
52032;BME280;38044;45.148;39.604;2023-01-30T06:19:11;100977.00;;;14.48;54.63
52032;BME280;38044;45.148;39.604;2023-01-30T06:21:37;101022.53;;;15.53;53.26
52032;BME280;38044;45.148;39.604;2023-01-30T06:24:03;101024.09;;;15.86;51.68
52032;BME280;38044;45.148;39.604;2023-01-30T06:26:29;100966.22;;;15.90;50.70
52032;BME280;38044;45.148;39.604;2023-01-30T06:28:55;101028.19;;;16.66;50.28
52032;BME280;38044;45.148;39.604;2023-01-30T06:31:20;101039.25;;;17.43;48.60
52032;BME280;38044;45.148;39.604;2023-01-30T06:33:46;101034.34;;;17.66;47.69
52032;BME280;38044;45.148;39.604;2023-01-30T06:36:13;101027.56;;;17.81;46.67
52032;BME280;38044;45.148;39.604;2023-01-30T06:38:40;101029.50;;;17.81;46.23
52032;BME280;38044;45.148;39.604;2023-01-30T06:41:05;100999.31;;;17.65;45.81
52032;BME280;38044;45.148;39.604;2023-01-30T06:43:31;100997.31;;;17.53;45.70
52032;BME280;38044;45.148;39.604;2023-01-30T06:45:58;101038.13;;;17.83;45.29
52032;BME280;38044;45.148;39.604;2023-01-30T06:48:24;101040.97;;;16.66;46.25
52032;BME280;38044;45.148;39.604;2023-01-30T06:50:49;101028.84;;;15.40;48.91
52032;BME280;38044;45.148;39.604;2023-01-30T06:53:15;101032.34;;;14.64;50.13
52032;BME280;38044;45.148;39.604;2023-01-30T06:55:41;101043.06;;;15.15;49.96
52032;BME280;38044;45.148;39.604;2023-01-30T06:58:12;101054.31;;;16.19;48.03
52032;BME280;38044;45.148;39.604;2023-01-30T07:00:39;101054.00;;;17.16;46.80
52032;BME280;38044;45.148;39.604;2023-01-30T07:03:13;101029.97;;;17.74;45.28
52032;BME280;38044;45.148;39.604;2023-01-30T07:05:41;101033.69;;;17.69;43.86
52032;BME280;38044;45.148;39.604;2023-01-30T07:08:07;101047.50;;;17.94;44.01
52032;BME280;38044;45.148;39.604;2023-01-30T07:10:33;101033.84;;;18.02;43.24
52032;BME280;38044;45.148;39.604;2023-01-30T07:13:00;101016.91;;;18.27;42.54
52032;BME280;38044;45.148;39.604;2023-01-30T07:15:27;101029.00;;;18.71;42.40
52032;BME280;38044;45.148;39.604;2023-01-30T07:17:53;100959.78;;;17.97;41.64
52032;BME280;38044;45.148;39.604;2023-01-30T07:20:19;101039.91;;;18.50;42.45
52032;BME280;38044;45.148;39.604;2023-01-30T07:22:49;101022.31;;;18.68;41.70
52032;BME280;38044;45.148;39.604;2023-01-30T07:25:15;101025.03;;;18.48;41.51
52032;BME280;38044;45.148;39.604;2023-01-30T07:28:03;101045.19;;;19.09;40.96
52032;BME280;38044;45.148;39.604;2023-01-30T07:30:33;101030.59;;;18.93;41.36
52032;BME280;38044;45.148;39.604;2023-01-30T07:33:01;101026.91;;;18.35;41.30
52032;BME280;38044;45.148;39.604;2023-01-30T07:35:29;101042.91;;;18.57;41.53
52032;BME280;38044;45.148;39.604;2023-01-30T07:37:56;100996.44;;;18.41;41.37
52032;BME280;38044;45.148;39.604;2023-01-30T07:40:22;100972.69;;;18.30;40.87
52032;BME280;38044;45.148;39.604;2023-01-30T07:42:59;101022.75;;;18.71;40.71
52032;BME280;38044;45.148;39.604;2023-01-30T07:45:28;101042.91;;;18.15;41.35
52032;BME280;38044;45.148;39.604;2023-01-30T07:47:55;101048.38;;;17.68;42.24
52032;BME280;38044;45.148;39.604;2023-01-30T07:50:21;101024.19;;;17.46;42.30
52032;BME280;38044;45.148;39.604;2023-01-30T07:52:47;101030.22;;;17.60;41.99
52032;BME280;38044;45.148;39.604;2023-01-30T07:55:12;101036.97;;;18.13;41.59
52032;BME280;38044;45.148;39.604;2023-01-30T07:57:38;101006.03;;;17.67;41.42
52032;BME280;38044;45.148;39.604;2023-01-30T08:00:06;100937.53;;;17.15;42.54
52032;BME280;38044;45.148;39.604;2023-01-30T08:02:32;101034.75;;;17.86;42.35
52032;BME280;38044;45.148;39.604;2023-01-30T08:04:57;101034.63;;;18.33;42.12
52032;BME280;38044;45.148;39.604;2023-01-30T08:07:23;101029.50;;;18.52;40.95
52032;BME280;38044;45.148;39.604;2023-01-30T08:09:49;100955.63;;;17.99;40.83
52032;BME280;38044;45.148;39.604;2023-01-30T08:12:15;101013.84;;;18.49;40.75
52032;BME280;38044;45.148;39.604;2023-01-30T08:14:40;101029.09;;;18.41;41.17
52032;BME280;38044;45.148;39.604;2023-01-30T08:17:06;101021.84;;;18.45;40.17
52032;BME280;38044;45.148;39.604;2023-01-30T08:19:32;100997.19;;;18.30;39.79
52032;BME280;38044;45.148;39.604;2023-01-30T08:21:58;100987.03;;;18.18;39.52
52032;BME280;38044;45.148;39.604;2023-01-30T08:24:24;100975.41;;;18.09;40.10
52032;BME280;38044;45.148;39.604;2023-01-30T08:26:50;100999.94;;;18.63;39.30
52032;BME280;38044;45.148;39.604;2023-01-30T08:29:15;100997.44;;;18.37;39.54
52032;BME280;38044;45.148;39.604;2023-01-30T08:31:42;100955.69;;;18.33;39.96
52032;BME280;38044;45.148;39.604;2023-01-30T08:34:07;100990.19;;;18.95;39.06
52032;BME280;38044;45.148;39.604;2023-01-30T08:36:33;100896.31;;;18.47;38.82
52032;BME280;38044;45.148;39.604;2023-01-30T08:38:59;100972.44;;;18.77;38.96
52032;BME280;38044;45.148;39.604;2023-01-30T08:41:25;100922.00;;;18.58;38.93
52032;BME280;38044;45.148;39.604;2023-01-30T08:43:53;101004.84;;;18.69;39.03
52032;BME280;38044;45.148;39.604;2023-01-30T08:46:19;100937.91;;;17.43;40.21
52032;BME280;38044;45.148;39.604;2023-01-30T08:48:47;100934.75;;;16.85;41.72
52032;BME280;38044;45.148;39.604;2023-01-30T08:51:13;100934.28;;;16.74;42.19
52032;BME280;38044;45.148;39.604;2023-01-30T08:53:39;100989.41;;;17.30;41.62
52032;BME280;38044;45.148;39.604;2023-01-30T08:56:05;100920.31;;;16.37;41.53
52032;BME280;38044;45.148;39.604;2023-01-30T08:58:31;100982.50;;;16.08;43.18
52032;BME280;38044;45.148;39.604;2023-01-30T09:00:57;100969.13;;;16.20;43.58
52032;BME280;38044;45.148;39.604;2023-01-30T09:03:23;100957.31;;;16.33;42.57
52032;BME280;38044;45.148;39.604;2023-01-30T09:05:54;100970.69;;;16.56;42.54
52032;BME280;38044;45.148;39.604;2023-01-30T09:08:20;100977.47;;;15.66;43.64
52032;BME280;38044;45.148;39.604;2023-01-30T09:10:46;100874.00;;;14.98;44.58
52032;BME280;38044;45.148;39.604;2023-01-30T09:13:12;100970.22;;;16.02;44.11
52032;BME280;38044;45.148;39.604;2023-01-30T09:15:41;100914.09;;;16.28;43.46
52032;BME280;38044;45.148;39.604;2023-01-30T09:18:07;100972.91;;;16.97;42.72
52032;BME280;38044;45.148;39.604;2023-01-30T09:20:32;100982.72;;;17.19;42.28
52032;BME280;38044;45.148;39.604;2023-01-30T09:22:59;100947.41;;;17.19;42.39
52032;BME280;38044;45.148;39.604;2023-01-30T09:25:25;100873.13;;;16.85;42.03
52032;BME280;38044;45.148;39.604;2023-01-30T09:27:51;100979.19;;;17.27;42.25
52032;BME280;38044;45.148;39.604;2023-01-30T09:30:17;100957.28;;;16.85;42.13
52032;BME280;38044;45.148;39.604;2023-01-30T09:32:43;100871.97;;;15.13;43.71
52032;BME280;38044;45.148;39.604;2023-01-30T09:35:09;100957.38;;;14.87;45.48
52032;BME280;38044;45.148;39.604;2023-01-30T09:37:35;100856.63;;;14.37;45.93
52032;BME280;38044;45.148;39.604;2023-01-30T09:40:01;100941.47;;;15.26;45.02
52032;BME280;38044;45.148;39.604;2023-01-30T09:48:05;100919.81;;;14.41;46.53
52032;BME280;38044;45.148;39.604;2023-01-30T09:50:48;100952.81;;;14.29;47.49
52032;BME280;38044;45.148;39.604;2023-01-30T09:56:10;100842.16;;;13.38;47.87
52032;BME280;38044;45.148;39.604;2023-01-30T09:58:48;100936.94;;;13.78;48.99
52032;BME280;38044;45.148;39.604;2023-01-30T10:01:26;100920.88;;;13.45;49.27
52032;BME280;38044;45.148;39.604;2023-01-30T10:09:48;100909.75;;;13.05;50.26
52032;BME280;38044;45.148;39.604;2023-01-30T10:15:39;100880.31;;;12.90;50.43
52032;BME280;38044;45.148;39.604;2023-01-30T10:18:18;100806.91;;;12.32;50.72
52032;BME280;38044;45.148;39.604;2023-01-30T10:26:19;100900.53;;;14.34;49.13
52032;BME280;38044;45.148;39.604;2023-01-30T10:29:20;100844.81;;;14.33;48.34
52032;BME280;38044;45.148;39.604;2023-01-30T10:32:03;100865.53;;;14.15;48.59
52032;BME280;38044;45.148;39.604;2023-01-30T10:34:41;100793.56;;;13.38;49.14
52032;BME280;38044;45.148;39.604;2023-01-30T10:37:21;100877.00;;;13.75;49.31
52032;BME280;38044;45.148;39.604;2023-01-30T10:40:04;100894.13;;;13.71;49.84
52032;BME280;38044;45.148;39.604;2023-01-30T10:42:43;100866.47;;;13.38;50.24
52032;BME280;38044;45.148;39.604;2023-01-30T10:45:29;100879.31;;;13.68;49.83
52032;BME280;38044;45.148;39.604;2023-01-30T10:50:54;100758.22;;;12.70;49.91
52032;BME280;38044;45.148;39.604;2023-01-30T10:59:23;100869.16;;;13.38;50.25
52032;BME280;38044;45.148;39.604;2023-01-30T11:05:19;100869.53;;;12.90;51.47
52032;BME280;38044;45.148;39.604;2023-01-30T11:07:46;100881.03;;;13.09;51.09
52032;BME280;38044;45.148;39.604;2023-01-30T11:10:21;100884.66;;;13.46;51.30
52032;BME280;38044;45.148;39.604;2023-01-30T11:12:54;100848.88;;;13.26;50.94
52032;BME280;38044;45.148;39.604;2023-01-30T11:15:22;100870.25;;;13.09;51.03
52032;BME280;38044;45.148;39.604;2023-01-30T11:17:50;100867.63;;;12.76;51.47
52032;BME280;38044;45.148;39.604;2023-01-30T11:20:21;100749.91;;;11.92;52.14
52032;BME280;38044;45.148;39.604;2023-01-30T11:25:27;100863.88;;;12.58;52.25
52032;BME280;38044;45.148;39.604;2023-01-30T11:28:17;100851.44;;;12.90;51.97
52032;BME280;38044;45.148;39.604;2023-01-30T11:30:59;100778.09;;;12.47;51.36
52032;BME280;38044;45.148;39.604;2023-01-30T11:33:36;100818.16;;;12.53;51.38
52032;BME280;38044;45.148;39.604;2023-01-30T11:36:08;100841.81;;;12.56;51.43
52032;BME280;38044;45.148;39.604;2023-01-30T11:38:57;100858.75;;;12.90;50.88
52032;BME280;38044;45.148;39.604;2023-01-30T11:41:24;100850.50;;;12.53;51.20
52032;BME280;38044;45.148;39.604;2023-01-30T11:43:49;100745.72;;;11.67;51.09
52032;BME280;38044;45.148;39.604;2023-01-30T11:46:19;100814.34;;;12.08;51.75
52032;BME280;38044;45.148;39.604;2023-01-30T11:51:19;100826.97;;;11.93;51.05
52032;BME280;38044;45.148;39.604;2023-01-30T11:54:06;100817.19;;;11.98;51.15
52032;BME280;38044;45.148;39.604;2023-01-30T11:56:41;100748.00;;;11.60;50.66
52032;BME280;38044;45.148;39.604;2023-01-30T11:59:35;100749.81;;;11.65;49.57
52032;BME280;38044;45.148;39.604;2023-01-30T12:02:30;100850.59;;;12.15;50.47
52032;BME280;38044;45.148;39.604;2023-01-30T12:05:00;100774.13;;;11.60;50.49
52032;BME280;38044;45.148;39.604;2023-01-30T12:07:28;100847.69;;;12.12;50.16
52032;BME280;38044;45.148;39.604;2023-01-30T12:09:56;100829.25;;;12.19;49.80
52032;BME280;38044;45.148;39.604;2023-01-30T12:15:27;100797.25;;;11.61;50.33
52032;BME280;38044;45.148;39.604;2023-01-30T12:20:58;100816.44;;;11.35;51.58
52032;BME280;38044;45.148;39.604;2023-01-30T12:26:15;100852.28;;;11.73;50.75
52032;BME280;38044;45.148;39.604;2023-01-30T12:28:59;100847.97;;;11.54;51.03
52032;BME280;38044;45.148;39.604;2023-01-30T12:31:36;100847.94;;;11.35;50.92
52032;BME280;38044;45.148;39.604;2023-01-30T12:34:04;100820.59;;;11.03;51.29
52032;BME280;38044;45.148;39.604;2023-01-30T12:57:46;100797.66;;;10.39;51.85
52032;BME280;38044;45.148;39.604;2023-01-30T13:00:30;100765.69;;;10.03;52.14
52032;BME280;38044;45.148;39.604;2023-01-30T13:03:08;100749.75;;;9.83;52.16
52032;BME280;38044;45.148;39.604;2023-01-30T13:05:48;100844.59;;;10.47;52.52
52032;BME280;38044;45.148;39.604;2023-01-30T13:08:40;100838.41;;;10.46;52.62
52032;BME280;38044;45.148;39.604;2023-01-30T13:17:52;100840.25;;;10.17;53.19
52032;BME280;38044;45.148;39.604;2023-01-30T13:25:59;100832.25;;;9.67;54.68
52032;BME280;38044;45.148;39.604;2023-01-30T13:28:32;100847.56;;;9.66;54.84
52032;BME280;38044;45.148;39.604;2023-01-30T13:31:01;100748.69;;;8.95;55.09
52032;BME280;38044;45.148;39.604;2023-01-30T13:33:33;100823.06;;;9.39;55.34
52032;BME280;38044;45.148;39.604;2023-01-30T13:38:53;100830.66;;;9.21;56.05
52032;BME280;38044;45.148;39.604;2023-01-30T13:41:23;100840.81;;;9.24;55.90
52032;BME280;38044;45.148;39.604;2023-01-30T13:43:53;100754.19;;;8.64;56.18
52032;BME280;38044;45.148;39.604;2023-01-30T13:46:25;100724.19;;;8.37;56.73
52032;BME280;38044;45.148;39.604;2023-01-30T13:49:03;100811.19;;;8.90;56.25
52032;BME280;38044;45.148;39.604;2023-01-30T14:09:42;100779.94;;;7.83;57.84
52032;BME280;38044;45.148;39.604;2023-01-30T14:12:24;100842.31;;;8.15;58.72
52032;BME280;38044;45.148;39.604;2023-01-30T14:17:27;100848.19;;;7.86;58.53
52032;BME280;38044;45.148;39.604;2023-01-30T14:20:03;100835.63;;;7.81;58.84
52032;BME280;38044;45.148;39.604;2023-01-30T14:22:50;100787.34;;;7.30;59.37
52032;BME280;38044;45.148;39.604;2023-01-30T14:36:28;100813.91;;;6.89;61.73
52032;BME280;38044;45.148;39.604;2023-01-30T14:38:34;100797.25;;;6.72;61.97
52032;BME280;38044;45.148;39.604;2023-01-30T14:51:28;100847.72;;;6.68;63.51
52032;BME280;38044;45.148;39.604;2023-01-30T14:56:49;100845.66;;;6.38;64.09
52032;BME280;38044;45.148;39.604;2023-01-30T14:59:22;100853.53;;;6.23;64.46
52032;BME280;38044;45.148;39.604;2023-01-30T15:01:59;100862.59;;;6.22;65.09
52032;BME280;38044;45.148;39.604;2023-01-30T15:04:44;100844.84;;;6.05;65.38
52032;BME280;38044;45.148;39.604;2023-01-30T15:07:38;100858.47;;;6.09;65.14
52032;BME280;38044;45.148;39.604;2023-01-30T15:10:13;100758.22;;;5.32;65.24
52032;BME280;38044;45.148;39.604;2023-01-30T15:12:55;100862.28;;;5.91;65.61
52032;BME280;38044;45.148;39.604;2023-01-30T15:18:04;100778.22;;;5.07;65.86
52032;BME280;38044;45.148;39.604;2023-01-30T15:20:38;100774.13;;;5.00;66.07
52032;BME280;38044;45.148;39.604;2023-01-30T15:26:20;100876.81;;;5.51;67.30
52032;BME280;38044;45.148;39.604;2023-01-30T15:32:13;100867.47;;;5.27;67.18
52032;BME280;38044;45.148;39.604;2023-01-30T15:34:55;100870.72;;;5.34;67.70
52032;BME280;38044;45.148;39.604;2023-01-30T15:37:35;100854.66;;;5.29;67.71
52032;BME280;38044;45.148;39.604;2023-01-30T15:40:16;100868.06;;;5.34;67.75
52032;BME280;38044;45.148;39.604;2023-01-30T15:45:28;100868.81;;;5.29;67.62
52032;BME280;38044;45.148;39.604;2023-01-30T15:50:37;100858.00;;;4.97;67.38
52032;BME280;38044;45.148;39.604;2023-01-30T15:53:10;100841.06;;;4.86;68.29
52032;BME280;38044;45.148;39.604;2023-01-30T15:55:40;100815.13;;;4.60;68.06
52032;BME280;38044;45.148;39.604;2023-01-30T15:58:10;100856.75;;;4.83;68.81
52032;BME280;38044;45.148;39.604;2023-01-30T16:00:44;100867.41;;;4.83;69.20